KBFM/BFM METAR and TAF weather

Enter ICAO airport designator
Station Type Date Time Source
KBFM METAR 2019/02/22 21:53 UTC NOAA

KBFM 222153Z 16010KT 10SM OVC008 22/21 A3007 RMK AO2 CIG 005V009 SLP182 T02220211


Station Type Date Time Source
KBFM Decoded METAR 2019/02/22 21:53 UTC NOAA

MOBILE DOWNTOWN AIRPORT, AL, United States (KBFM) 30-38N 88-04W 20M
Feb 22, 2019 - 04:53 PM EST / 2019.02.22 2153 UTC
Wind: from the SSE (160 degrees) at 12 MPH (10 KT):0
Visibility: 10 mile(s):0
Sky conditions: overcast
Temperature: 72.0 F (22.2 C)
Dew Point: 70.0 F (21.1 C)
Relative Humidity: 93%
Pressure (altimeter): 30.07 in. Hg (1018 hPa)
ob: KBFM 222153Z 16010KT 10SM OVC008 22/21 A3007 RMK AO2 CIG 005V009 SLP182 T02220211
cycle: 22

Station Type Date Time Source
KBFM TAF 2019/02/22 22:39 UTC NOAA

TAF
AMD KBFM 222136Z 2222/2318 16008KT P6SM OVC005
FM230000 16010KT 4SM BR BKN010 BKN250
FM230300 14005KT 2SM BR OVC003
FM230600 13005KT 1/2SM FG VV002
FM231600 17012G16KT 4SM BR BKN007


Example: see airport list